sensor_id;sensor_type;location;lat;lon;timestamp;P1;durP1;ratioP1;P2;durP2;ratioP2
6027;SDS011;3042;43.194;27.646;2022-12-01T00:01:31;190.67;;;126.57;;
6027;SDS011;3042;43.194;27.646;2022-12-01T00:04:06;195.47;;;133.77;;
6027;SDS011;3042;43.194;27.646;2022-12-01T00:06:44;189.33;;;135.70;;
6027;SDS011;3042;43.194;27.646;2022-12-01T00:09:19;182.10;;;129.00;;
6027;SDS011;3042;43.194;27.646;2022-12-01T00:12:10;202.17;;;129.93;;
6027;SDS011;3042;43.194;27.646;2022-12-01T00:14:46;192.63;;;131.67;;
6027;SDS011;3042;43.194;27.646;2022-12-01T00:17:28;182.40;;;125.93;;
6027;SDS011;3042;43.194;27.646;2022-12-01T00:20:06;188.07;;;130.47;;
6027;SDS011;3042;43.194;27.646;2022-12-01T00:22:45;220.13;;;152.63;;
6027;SDS011;3042;43.194;27.646;2022-12-01T00:25:23;228.80;;;141.77;;
6027;SDS011;3042;43.194;27.646;2022-12-01T00:27:58;190.20;;;133.17;;
6027;SDS011;3042;43.194;27.646;2022-12-01T00:30:32;202.87;;;130.20;;
6027;SDS011;3042;43.194;27.646;2022-12-01T00:33:06;216.80;;;133.83;;
6027;SDS011;3042;43.194;27.646;2022-12-01T00:35:52;210.27;;;130.87;;
6027;SDS011;3042;43.194;27.646;2022-12-01T00:38:32;219.37;;;133.90;;
6027;SDS011;3042;43.194;27.646;2022-12-01T00:41:08;236.60;;;134.87;;
6027;SDS011;3042;43.194;27.646;2022-12-01T00:43:46;222.40;;;137.07;;
6027;SDS011;3042;43.194;27.646;2022-12-01T00:46:21;227.97;;;138.67;;
6027;SDS011;3042;43.194;27.646;2022-12-01T00:48:57;236.23;;;129.70;;
6027;SDS011;3042;43.194;27.646;2022-12-01T00:51:37;210.80;;;122.77;;
6027;SDS011;3042;43.194;27.646;2022-12-01T00:54:11;230.50;;;131.33;;
6027;SDS011;3042;43.194;27.646;2022-12-01T00:56:48;230.57;;;128.63;;
6027;SDS011;3042;43.194;27.646;2022-12-01T00:59:24;229.90;;;131.80;;
6027;SDS011;3042;43.194;27.646;2022-12-01T01:02:05;219.33;;;133.47;;
6027;SDS011;3042;43.194;27.646;2022-12-01T01:04:47;218.67;;;133.03;;
6027;SDS011;3042;43.194;27.646;2022-12-01T01:07:22;209.20;;;124.40;;
6027;SDS011;3042;43.194;27.646;2022-12-01T01:09:56;188.13;;;122.40;;
6027;SDS011;3042;43.194;27.646;2022-12-01T01:12:31;208.37;;;127.80;;
6027;SDS011;3042;43.194;27.646;2022-12-01T01:15:12;225.30;;;139.43;;
6027;SDS011;3042;43.194;27.646;2022-12-01T01:17:50;220.97;;;130.27;;
6027;SDS011;3042;43.194;27.646;2022-12-01T01:20:30;210.10;;;123.60;;
6027;SDS011;3042;43.194;27.646;2022-12-01T01:23:04;236.57;;;137.33;;
6027;SDS011;3042;43.194;27.646;2022-12-01T01:25:39;231.40;;;133.77;;
6027;SDS011;3042;43.194;27.646;2022-12-01T01:28:14;239.63;;;136.90;;
6027;SDS011;3042;43.194;27.646;2022-12-01T01:30:53;269.47;;;149.23;;
6027;SDS011;3042;43.194;27.646;2022-12-01T01:33:28;252.27;;;139.00;;
6027;SDS011;3042;43.194;27.646;2022-12-01T01:36:04;230.13;;;130.90;;
6027;SDS011;3042;43.194;27.646;2022-12-01T01:38:43;220.63;;;124.97;;
6027;SDS011;3042;43.194;27.646;2022-12-01T01:41:22;204.50;;;120.40;;
6027;SDS011;3042;43.194;27.646;2022-12-01T01:43:58;224.93;;;126.17;;
6027;SDS011;3042;43.194;27.646;2022-12-01T01:46:37;216.67;;;122.20;;
6027;SDS011;3042;43.194;27.646;2022-12-01T01:49:12;225.53;;;121.63;;
6027;SDS011;3042;43.194;27.646;2022-12-01T01:51:48;201.40;;;121.13;;
6027;SDS011;3042;43.194;27.646;2022-12-01T01:54:38;203.83;;;126.30;;
6027;SDS011;3042;43.194;27.646;2022-12-01T01:57:18;158.90;;;111.67;;
6027;SDS011;3042;43.194;27.646;2022-12-01T02:00:01;165.70;;;117.33;;
6027;SDS011;3042;43.194;27.646;2022-12-01T02:02:41;147.93;;;120.67;;
6027;SDS011;3042;43.194;27.646;2022-12-01T02:05:18;175.43;;;122.20;;
6027;SDS011;3042;43.194;27.646;2022-12-01T02:07:55;167.13;;;116.43;;
6027;SDS011;3042;43.194;27.646;2022-12-01T02:10:41;188.57;;;127.30;;
6027;SDS011;3042;43.194;27.646;2022-12-01T02:13:28;146.63;;;109.27;;
6027;SDS011;3042;43.194;27.646;2022-12-01T02:16:08;135.60;;;106.77;;
6027;SDS011;3042;43.194;27.646;2022-12-01T02:18:50;165.30;;;109.60;;
6027;SDS011;3042;43.194;27.646;2022-12-01T02:21:37;162.83;;;113.10;;
6027;SDS011;3042;43.194;27.646;2022-12-01T02:30:51;124.00;;;104.47;;
6027;SDS011;3042;43.194;27.646;2022-12-01T02:33:31;126.97;;;102.37;;
6027;SDS011;3042;43.194;27.646;2022-12-01T02:36:13;61.93;;;58.43;;
6027;SDS011;3042;43.194;27.646;2022-12-01T02:38:50;67.33;;;63.50;;
6027;SDS011;3042;43.194;27.646;2022-12-01T02:41:33;64.67;;;61.07;;
6027;SDS011;3042;43.194;27.646;2022-12-01T02:44:15;64.13;;;60.23;;
6027;SDS011;3042;43.194;27.646;2022-12-01T02:46:59;67.83;;;63.80;;
6027;SDS011;3042;43.194;27.646;2022-12-01T02:49:40;67.57;;;63.33;;
6027;SDS011;3042;43.194;27.646;2022-12-01T02:52:18;59.67;;;54.83;;
6027;SDS011;3042;43.194;27.646;2022-12-01T02:54:52;64.73;;;60.17;;
6027;SDS011;3042;43.194;27.646;2022-12-01T02:57:24;66.33;;;62.63;;
6027;SDS011;3042;43.194;27.646;2022-12-01T02:59:55;65.77;;;61.80;;
6027;SDS011;3042;43.194;27.646;2022-12-01T03:02:29;125.57;;;100.97;;
6027;SDS011;3042;43.194;27.646;2022-12-01T03:05:08;139.20;;;110.03;;
6027;SDS011;3042;43.194;27.646;2022-12-01T03:07:49;130.07;;;102.30;;
6027;SDS011;3042;43.194;27.646;2022-12-01T03:10:30;129.63;;;103.70;;
6027;SDS011;3042;43.194;27.646;2022-12-01T03:13:17;166.20;;;112.67;;
6027;SDS011;3042;43.194;27.646;2022-12-01T03:16:01;172.50;;;114.33;;
6027;SDS011;3042;43.194;27.646;2022-12-01T03:18:42;166.53;;;113.80;;
6027;SDS011;3042;43.194;27.646;2022-12-01T03:21:19;183.47;;;114.97;;
6027;SDS011;3042;43.194;27.646;2022-12-01T03:23:58;194.57;;;121.33;;
6027;SDS011;3042;43.194;27.646;2022-12-01T03:26:31;205.43;;;117.63;;
6027;SDS011;3042;43.194;27.646;2022-12-01T03:29:03;206.93;;;115.27;;
6027;SDS011;3042;43.194;27.646;2022-12-01T03:31:39;203.73;;;115.03;;
6027;SDS011;3042;43.194;27.646;2022-12-01T03:34:20;178.70;;;117.70;;
6027;SDS011;3042;43.194;27.646;2022-12-01T03:36:59;172.80;;;113.70;;
6027;SDS011;3042;43.194;27.646;2022-12-01T03:39:37;161.40;;;106.33;;
6027;SDS011;3042;43.194;27.646;2022-12-01T03:42:18;176.23;;;113.40;;
6027;SDS011;3042;43.194;27.646;2022-12-01T03:44:55;214.70;;;120.97;;
6027;SDS011;3042;43.194;27.646;2022-12-01T03:47:32;193.10;;;117.27;;
6027;SDS011;3042;43.194;27.646;2022-12-01T03:50:13;217.30;;;120.63;;
6027;SDS011;3042;43.194;27.646;2022-12-01T03:52:51;182.37;;;117.83;;
6027;SDS011;3042;43.194;27.646;2022-12-01T03:55:37;189.27;;;119.07;;
6027;SDS011;3042;43.194;27.646;2022-12-01T03:58:14;193.47;;;117.60;;
6027;SDS011;3042;43.194;27.646;2022-12-01T04:00:52;208.73;;;113.37;;
6027;SDS011;3042;43.194;27.646;2022-12-01T04:03:29;202.23;;;121.23;;
6027;SDS011;3042;43.194;27.646;2022-12-01T04:06:07;212.93;;;120.47;;
6027;SDS011;3042;43.194;27.646;2022-12-01T04:08:46;188.93;;;107.37;;
6027;SDS011;3042;43.194;27.646;2022-12-01T04:11:24;220.90;;;117.30;;
6027;SDS011;3042;43.194;27.646;2022-12-01T04:14:13;207.97;;;121.50;;
6027;SDS011;3042;43.194;27.646;2022-12-01T04:16:46;216.47;;;116.00;;
6027;SDS011;3042;43.194;27.646;2022-12-01T04:19:20;225.90;;;116.37;;
6027;SDS011;3042;43.194;27.646;2022-12-01T04:21:59;223.40;;;114.77;;
6027;SDS011;3042;43.194;27.646;2022-12-01T04:24:36;188.53;;;107.57;;
6027;SDS011;3042;43.194;27.646;2022-12-01T04:27:18;200.03;;;115.87;;
6027;SDS011;3042;43.194;27.646;2022-12-01T04:29:52;224.73;;;122.80;;
6027;SDS011;3042;43.194;27.646;2022-12-01T04:32:34;242.67;;;127.37;;
6027;SDS011;3042;43.194;27.646;2022-12-01T04:35:08;254.37;;;130.53;;
6027;SDS011;3042;43.194;27.646;2022-12-01T04:37:51;255.03;;;127.67;;
6027;SDS011;3042;43.194;27.646;2022-12-01T04:40:24;241.77;;;119.57;;
6027;SDS011;3042;43.194;27.646;2022-12-01T04:42:58;209.80;;;120.43;;
6027;SDS011;3042;43.194;27.646;2022-12-01T04:45:33;163.90;;;104.83;;
6027;SDS011;3042;43.194;27.646;2022-12-01T04:48:10;219.53;;;120.27;;
6027;SDS011;3042;43.194;27.646;2022-12-01T04:50:37;213.70;;;119.57;;
6027;SDS011;3042;43.194;27.646;2022-12-01T04:53:07;241.53;;;126.20;;
6027;SDS011;3042;43.194;27.646;2022-12-01T04:55:35;222.40;;;113.57;;
6027;SDS011;3042;43.194;27.646;2022-12-01T04:58:03;230.57;;;110.07;;
6027;SDS011;3042;43.194;27.646;2022-12-01T05:00:31;232.97;;;112.80;;
6027;SDS011;3042;43.194;27.646;2022-12-01T05:03:03;220.73;;;116.70;;
6027;SDS011;3042;43.194;27.646;2022-12-01T05:05:30;242.77;;;118.27;;
6027;SDS011;3042;43.194;27.646;2022-12-01T05:07:57;195.75;;;113.03;;
6027;SDS011;3042;43.194;27.646;2022-12-01T05:10:26;215.00;;;108.93;;
6027;SDS011;3042;43.194;27.646;2022-12-01T05:12:53;226.90;;;111.67;;
6027;SDS011;3042;43.194;27.646;2022-12-01T05:15:22;255.47;;;120.20;;
6027;SDS011;3042;43.194;27.646;2022-12-01T05:17:49;241.20;;;119.43;;
6027;SDS011;3042;43.194;27.646;2022-12-01T05:20:17;261.77;;;119.73;;
6027;SDS011;3042;43.194;27.646;2022-12-01T05:23:02;262.67;;;118.70;;
6027;SDS011;3042;43.194;27.646;2022-12-01T05:25:31;265.83;;;120.33;;
6027;SDS011;3042;43.194;27.646;2022-12-01T05:27:59;273.60;;;127.07;;
6027;SDS011;3042;43.194;27.646;2022-12-01T05:30:26;273.20;;;125.30;;
6027;SDS011;3042;43.194;27.646;2022-12-01T05:32:53;267.07;;;124.20;;
6027;SDS011;3042;43.194;27.646;2022-12-01T05:35:21;258.87;;;117.47;;
6027;SDS011;3042;43.194;27.646;2022-12-01T05:37:48;261.13;;;126.40;;
6027;SDS011;3042;43.194;27.646;2022-12-01T05:40:15;272.27;;;132.70;;
6027;SDS011;3042;43.194;27.646;2022-12-01T05:42:44;279.33;;;126.17;;
6027;SDS011;3042;43.194;27.646;2022-12-01T05:45:11;288.67;;;132.57;;
6027;SDS011;3042;43.194;27.646;2022-12-01T05:47:38;287.17;;;132.97;;
6027;SDS011;3042;43.194;27.646;2022-12-01T05:50:06;287.63;;;131.30;;
6027;SDS011;3042;43.194;27.646;2022-12-01T05:52:34;294.43;;;134.70;;
6027;SDS011;3042;43.194;27.646;2022-12-01T05:55:02;285.33;;;132.80;;
6027;SDS011;3042;43.194;27.646;2022-12-01T05:57:30;272.77;;;124.00;;
6027;SDS011;3042;43.194;27.646;2022-12-01T05:59:59;283.30;;;129.30;;
6027;SDS011;3042;43.194;27.646;2022-12-01T06:02:26;288.33;;;124.53;;
6027;SDS011;3042;43.194;27.646;2022-12-01T06:04:53;256.63;;;116.07;;
6027;SDS011;3042;43.194;27.646;2022-12-01T06:07:21;263.33;;;114.33;;
6027;SDS011;3042;43.194;27.646;2022-12-01T06:09:50;277.10;;;114.70;;
6027;SDS011;3042;43.194;27.646;2022-12-01T06:12:17;305.20;;;124.50;;
6027;SDS011;3042;43.194;27.646;2022-12-01T06:14:45;302.03;;;127.23;;
6027;SDS011;3042;43.194;27.646;2022-12-01T06:17:13;293.07;;;131.77;;
6027;SDS011;3042;43.194;27.646;2022-12-01T06:19:41;285.33;;;118.90;;
6027;SDS011;3042;43.194;27.646;2022-12-01T06:22:09;276.37;;;119.90;;
6027;SDS011;3042;43.194;27.646;2022-12-01T06:24:36;325.10;;;140.63;;
6027;SDS011;3042;43.194;27.646;2022-12-01T06:27:03;294.67;;;121.10;;
6027;SDS011;3042;43.194;27.646;2022-12-01T06:29:30;285.47;;;125.70;;
6027;SDS011;3042;43.194;27.646;2022-12-01T06:31:57;313.77;;;133.80;;
6027;SDS011;3042;43.194;27.646;2022-12-01T06:34:26;293.87;;;127.03;;
6027;SDS011;3042;43.194;27.646;2022-12-01T06:36:53;298.23;;;125.20;;
6027;SDS011;3042;43.194;27.646;2022-12-01T06:39:20;283.83;;;120.00;;
6027;SDS011;3042;43.194;27.646;2022-12-01T06:41:48;233.80;;;105.77;;
6027;SDS011;3042;43.194;27.646;2022-12-01T06:44:15;230.10;;;113.33;;
6027;SDS011;3042;43.194;27.646;2022-12-01T06:46:42;238.63;;;106.10;;
6027;SDS011;3042;43.194;27.646;2022-12-01T06:49:09;240.00;;;116.17;;
6027;SDS011;3042;43.194;27.646;2022-12-01T06:51:38;232.53;;;112.57;;
6027;SDS011;3042;43.194;27.646;2022-12-01T06:54:06;237.73;;;116.60;;
6027;SDS011;3042;43.194;27.646;2022-12-01T06:56:33;238.33;;;116.50;;
6027;SDS011;3042;43.194;27.646;2022-12-01T06:59:00;260.87;;;123.20;;
6027;SDS011;3042;43.194;27.646;2022-12-01T07:01:27;211.20;;;113.17;;
6027;SDS011;3042;43.194;27.646;2022-12-01T07:03:55;245.13;;;114.93;;
6027;SDS011;3042;43.194;27.646;2022-12-01T07:06:22;243.60;;;117.67;;
6027;SDS011;3042;43.194;27.646;2022-12-01T07:08:51;250.60;;;118.07;;
6027;SDS011;3042;43.194;27.646;2022-12-01T07:11:18;253.77;;;113.43;;
6027;SDS011;3042;43.194;27.646;2022-12-01T07:13:45;244.10;;;119.47;;
6027;SDS011;3042;43.194;27.646;2022-12-01T07:16:13;246.20;;;121.30;;
6027;SDS011;3042;43.194;27.646;2022-12-01T07:18:41;218.87;;;106.83;;
6027;SDS011;3042;43.194;27.646;2022-12-01T07:21:09;230.60;;;113.73;;
6027;SDS011;3042;43.194;27.646;2022-12-01T07:23:38;207.20;;;113.20;;
6027;SDS011;3042;43.194;27.646;2022-12-01T07:26:08;236.47;;;119.17;;
6027;SDS011;3042;43.194;27.646;2022-12-01T07:28:37;269.53;;;131.40;;
6027;SDS011;3042;43.194;27.646;2022-12-01T07:31:05;258.47;;;130.77;;
6027;SDS011;3042;43.194;27.646;2022-12-01T07:33:33;261.20;;;124.87;;
6027;SDS011;3042;43.194;27.646;2022-12-01T07:36:01;263.50;;;142.37;;
6027;SDS011;3042;43.194;27.646;2022-12-01T07:38:29;252.07;;;135.30;;
6027;SDS011;3042;43.194;27.646;2022-12-01T07:41:01;242.23;;;138.70;;
6027;SDS011;3042;43.194;27.646;2022-12-01T07:43:30;256.47;;;133.53;;
6027;SDS011;3042;43.194;27.646;2022-12-01T07:46:02;238.20;;;137.40;;
6027;SDS011;3042;43.194;27.646;2022-12-01T07:48:30;253.30;;;137.30;;
6027;SDS011;3042;43.194;27.646;2022-12-01T07:50:58;251.13;;;146.93;;
6027;SDS011;3042;43.194;27.646;2022-12-01T07:53:25;218.20;;;133.10;;
6027;SDS011;3042;43.194;27.646;2022-12-01T07:55:52;213.23;;;117.30;;
6027;SDS011;3042;43.194;27.646;2022-12-01T07:58:19;169.70;;;126.63;;
6027;SDS011;3042;43.194;27.646;2022-12-01T08:00:48;237.73;;;141.07;;
6027;SDS011;3042;43.194;27.646;2022-12-01T08:03:15;247.50;;;125.63;;
6027;SDS011;3042;43.194;27.646;2022-12-01T08:05:43;259.10;;;134.40;;
6027;SDS011;3042;43.194;27.646;2022-12-01T08:08:10;251.07;;;123.10;;
6027;SDS011;3042;43.194;27.646;2022-12-01T08:10:37;219.07;;;111.50;;
6027;SDS011;3042;43.194;27.646;2022-12-01T08:13:04;217.13;;;110.47;;
6027;SDS011;3042;43.194;27.646;2022-12-01T08:15:32;223.47;;;117.90;;
6027;SDS011;3042;43.194;27.646;2022-12-01T08:18:01;224.93;;;117.93;;
6027;SDS011;3042;43.194;27.646;2022-12-01T08:20:28;228.60;;;121.50;;
6027;SDS011;3042;43.194;27.646;2022-12-01T08:22:55;243.13;;;124.30;;
6027;SDS011;3042;43.194;27.646;2022-12-01T08:25:26;236.73;;;115.57;;
6027;SDS011;3042;43.194;27.646;2022-12-01T08:27:54;233.27;;;122.23;;
6027;SDS011;3042;43.194;27.646;2022-12-01T08:30:21;270.37;;;149.97;;
6027;SDS011;3042;43.194;27.646;2022-12-01T08:32:50;259.07;;;123.90;;
6027;SDS011;3042;43.194;27.646;2022-12-01T08:35:20;257.43;;;117.90;;
6027;SDS011;3042;43.194;27.646;2022-12-01T08:37:50;277.43;;;131.77;;
6027;SDS011;3042;43.194;27.646;2022-12-01T08:40:18;288.90;;;144.20;;
6027;SDS011;3042;43.194;27.646;2022-12-01T08:42:45;297.30;;;164.73;;
6027;SDS011;3042;43.194;27.646;2022-12-01T08:45:12;288.00;;;156.63;;
6027;SDS011;3042;43.194;27.646;2022-12-01T08:47:40;307.10;;;152.90;;
6027;SDS011;3042;43.194;27.646;2022-12-01T08:50:07;275.67;;;140.07;;
6027;SDS011;3042;43.194;27.646;2022-12-01T08:52:36;257.47;;;127.47;;
6027;SDS011;3042;43.194;27.646;2022-12-01T08:55:04;254.30;;;121.73;;
6027;SDS011;3042;43.194;27.646;2022-12-01T08:57:32;251.23;;;126.67;;
6027;SDS011;3042;43.194;27.646;2022-12-01T08:59:59;255.73;;;130.43;;
6027;SDS011;3042;43.194;27.646;2022-12-01T09:02:26;244.80;;;119.90;;
6027;SDS011;3042;43.194;27.646;2022-12-01T09:04:54;236.27;;;116.40;;
6027;SDS011;3042;43.194;27.646;2022-12-01T09:07:21;255.83;;;130.40;;
6027;SDS011;3042;43.194;27.646;2022-12-01T09:09:50;261.27;;;124.40;;
6027;SDS011;3042;43.194;27.646;2022-12-01T09:12:17;264.57;;;136.97;;
6027;SDS011;3042;43.194;27.646;2022-12-01T09:14:44;251.80;;;124.87;;
6027;SDS011;3042;43.194;27.646;2022-12-01T09:17:14;239.17;;;123.77;;
6027;SDS011;3042;43.194;27.646;2022-12-01T09:19:42;244.73;;;120.60;;
6027;SDS011;3042;43.194;27.646;2022-12-01T09:22:10;220.20;;;116.97;;
6027;SDS011;3042;43.194;27.646;2022-12-01T09:24:38;237.77;;;120.07;;
6027;SDS011;3042;43.194;27.646;2022-12-01T09:27:08;262.93;;;123.50;;
6027;SDS011;3042;43.194;27.646;2022-12-01T09:29:35;254.50;;;125.20;;
6027;SDS011;3042;43.194;27.646;2022-12-01T09:32:02;248.10;;;113.03;;
6027;SDS011;3042;43.194;27.646;2022-12-01T09:34:30;258.40;;;118.03;;
6027;SDS011;3042;43.194;27.646;2022-12-01T09:36:57;257.47;;;118.83;;
6027;SDS011;3042;43.194;27.646;2022-12-01T09:39:25;250.90;;;123.50;;
6027;SDS011;3042;43.194;27.646;2022-12-01T09:41:54;251.83;;;122.00;;
6027;SDS011;3042;43.194;27.646;2022-12-01T09:44:29;242.40;;;117.30;;
6027;SDS011;3042;43.194;27.646;2022-12-01T09:47:02;255.93;;;117.27;;
6027;SDS011;3042;43.194;27.646;2022-12-01T09:49:38;245.47;;;118.53;;
6027;SDS011;3042;43.194;27.646;2022-12-01T09:52:11;247.47;;;125.33;;
6027;SDS011;3042;43.194;27.646;2022-12-01T09:54:41;213.97;;;114.67;;
6027;SDS011;3042;43.194;27.646;2022-12-01T09:57:12;229.03;;;117.53;;
6027;SDS011;3042;43.194;27.646;2022-12-01T09:59:44;218.23;;;136.43;;
6027;SDS011;3042;43.194;27.646;2022-12-01T10:02:19;192.43;;;113.20;;
6027;SDS011;3042;43.194;27.646;2022-12-01T10:04:52;189.70;;;109.10;;
6027;SDS011;3042;43.194;27.646;2022-12-01T10:07:23;200.50;;;107.50;;
6027;SDS011;3042;43.194;27.646;2022-12-01T10:09:55;192.57;;;107.87;;
6027;SDS011;3042;43.194;27.646;2022-12-01T10:12:24;217.43;;;117.27;;
6027;SDS011;3042;43.194;27.646;2022-12-01T10:14:59;215.47;;;110.63;;
6027;SDS011;3042;43.194;27.646;2022-12-01T10:17:41;223.87;;;109.73;;
6027;SDS011;3042;43.194;27.646;2022-12-01T10:20:18;241.13;;;115.40;;
6027;SDS011;3042;43.194;27.646;2022-12-01T10:22:56;208.27;;;115.80;;
6027;SDS011;3042;43.194;27.646;2022-12-01T10:25:39;225.93;;;118.07;;
6027;SDS011;3042;43.194;27.646;2022-12-01T10:28:23;242.23;;;119.47;;
6027;SDS011;3042;43.194;27.646;2022-12-01T10:31:00;235.57;;;118.57;;
6027;SDS011;3042;43.194;27.646;2022-12-01T10:33:37;239.97;;;119.47;;
6027;SDS011;3042;43.194;27.646;2022-12-01T10:36:10;274.70;;;126.50;;
6027;SDS011;3042;43.194;27.646;2022-12-01T10:38:38;274.33;;;125.33;;
6027;SDS011;3042;43.194;27.646;2022-12-01T10:41:05;266.80;;;123.67;;
6027;SDS011;3042;43.194;27.646;2022-12-01T10:43:46;274.23;;;131.80;;
6027;SDS011;3042;43.194;27.646;2022-12-01T10:46:20;252.10;;;120.93;;
6027;SDS011;3042;43.194;27.646;2022-12-01T10:48:52;265.03;;;127.90;;
6027;SDS011;3042;43.194;27.646;2022-12-01T10:51:20;267.83;;;125.43;;
6027;SDS011;3042;43.194;27.646;2022-12-01T10:53:48;237.60;;;118.67;;
6027;SDS011;3042;43.194;27.646;2022-12-01T10:56:22;231.90;;;116.63;;
6027;SDS011;3042;43.194;27.646;2022-12-01T10:58:50;230.13;;;122.63;;
6027;SDS011;3042;43.194;27.646;2022-12-01T11:01:22;232.17;;;123.60;;
6027;SDS011;3042;43.194;27.646;2022-12-01T11:03:52;247.43;;;121.57;;
6027;SDS011;3042;43.194;27.646;2022-12-01T11:06:23;268.67;;;126.27;;
6027;SDS011;3042;43.194;27.646;2022-12-01T11:08:52;256.80;;;126.00;;
6027;SDS011;3042;43.194;27.646;2022-12-01T11:11:27;268.13;;;127.43;;
6027;SDS011;3042;43.194;27.646;2022-12-01T11:13:58;261.07;;;124.07;;
6027;SDS011;3042;43.194;27.646;2022-12-01T11:16:37;251.23;;;129.07;;
6027;SDS011;3042;43.194;27.646;2022-12-01T11:19:07;273.93;;;153.60;;
6027;SDS011;3042;43.194;27.646;2022-12-01T11:21:43;254.33;;;126.73;;
6027;SDS011;3042;43.194;27.646;2022-12-01T11:24:16;258.43;;;126.47;;
6027;SDS011;3042;43.194;27.646;2022-12-01T11:26:52;254.93;;;126.43;;
6027;SDS011;3042;43.194;27.646;2022-12-01T11:29:23;225.93;;;119.73;;
6027;SDS011;3042;43.194;27.646;2022-12-01T11:31:57;197.80;;;109.93;;
6027;SDS011;3042;43.194;27.646;2022-12-01T11:34:27;187.03;;;114.60;;
6027;SDS011;3042;43.194;27.646;2022-12-01T11:36:56;183.13;;;109.90;;
6027;SDS011;3042;43.194;27.646;2022-12-01T11:39:26;177.03;;;108.23;;
6027;SDS011;3042;43.194;27.646;2022-12-01T11:41:57;230.93;;;121.60;;
6027;SDS011;3042;43.194;27.646;2022-12-01T11:44:26;234.37;;;119.00;;
6027;SDS011;3042;43.194;27.646;2022-12-01T11:46:56;221.50;;;116.90;;
6027;SDS011;3042;43.194;27.646;2022-12-01T11:49:38;236.83;;;115.70;;
6027;SDS011;3042;43.194;27.646;2022-12-01T11:52:15;190.30;;;118.20;;
6027;SDS011;3042;43.194;27.646;2022-12-01T11:54:53;209.47;;;123.33;;
6027;SDS011;3042;43.194;27.646;2022-12-01T11:57:21;221.80;;;130.30;;
6027;SDS011;3042;43.194;27.646;2022-12-01T11:59:49;215.50;;;123.17;;
6027;SDS011;3042;43.194;27.646;2022-12-01T12:02:21;215.23;;;120.50;;
6027;SDS011;3042;43.194;27.646;2022-12-01T12:05:03;200.53;;;119.93;;
6027;SDS011;3042;43.194;27.646;2022-12-01T12:07:53;187.40;;;110.00;;
6027;SDS011;3042;43.194;27.646;2022-12-01T12:10:34;215.43;;;122.40;;
6027;SDS011;3042;43.194;27.646;2022-12-01T12:13:27;239.60;;;140.70;;
6027;SDS011;3042;43.194;27.646;2022-12-01T12:16:08;204.53;;;116.77;;
6027;SDS011;3042;43.194;27.646;2022-12-01T12:18:56;220.57;;;130.73;;
6027;SDS011;3042;43.194;27.646;2022-12-01T12:21:37;230.83;;;134.50;;
6027;SDS011;3042;43.194;27.646;2022-12-01T12:27:07;193.53;;;109.53;;
6027;SDS011;3042;43.194;27.646;2022-12-01T12:29:46;199.27;;;120.37;;
6027;SDS011;3042;43.194;27.646;2022-12-01T12:32:32;203.90;;;107.10;;
6027;SDS011;3042;43.194;27.646;2022-12-01T12:35:17;188.07;;;108.73;;
6027;SDS011;3042;43.194;27.646;2022-12-01T12:37:55;213.87;;;135.23;;
6027;SDS011;3042;43.194;27.646;2022-12-01T12:40:40;196.40;;;112.50;;
6027;SDS011;3042;43.194;27.646;2022-12-01T12:43:18;195.87;;;124.33;;
6027;SDS011;3042;43.194;27.646;2022-12-01T12:45:59;192.47;;;110.97;;
6027;SDS011;3042;43.194;27.646;2022-12-01T12:48:35;194.93;;;116.23;;
6027;SDS011;3042;43.194;27.646;2022-12-01T12:51:19;195.10;;;111.60;;
6027;SDS011;3042;43.194;27.646;2022-12-01T12:53:52;242.10;;;134.10;;
6027;SDS011;3042;43.194;27.646;2022-12-01T12:56:25;243.00;;;122.00;;
6027;SDS011;3042;43.194;27.646;2022-12-01T12:58:56;205.93;;;114.60;;
6027;SDS011;3042;43.194;27.646;2022-12-01T13:01:27;197.53;;;115.17;;
6027;SDS011;3042;43.194;27.646;2022-12-01T13:03:59;213.23;;;122.07;;
6027;SDS011;3042;43.194;27.646;2022-12-01T13:06:33;223.53;;;123.70;;
6027;SDS011;3042;43.194;27.646;2022-12-01T13:09:07;226.87;;;120.07;;
6027;SDS011;3042;43.194;27.646;2022-12-01T13:11:41;236.10;;;120.40;;
6027;SDS011;3042;43.194;27.646;2022-12-01T13:14:16;244.03;;;118.07;;
6027;SDS011;3042;43.194;27.646;2022-12-01T13:16:47;242.43;;;126.07;;
6027;SDS011;3042;43.194;27.646;2022-12-01T13:19:19;258.27;;;120.13;;
6027;SDS011;3042;43.194;27.646;2022-12-01T13:21:52;225.73;;;116.10;;
6027;SDS011;3042;43.194;27.646;2022-12-01T13:24:21;240.37;;;118.13;;
6027;SDS011;3042;43.194;27.646;2022-12-01T13:26:51;282.70;;;143.63;;
6027;SDS011;3042;43.194;27.646;2022-12-01T13:29:23;242.73;;;117.27;;
6027;SDS011;3042;43.194;27.646;2022-12-01T13:31:53;242.30;;;121.20;;
6027;SDS011;3042;43.194;27.646;2022-12-01T13:34:23;237.20;;;122.40;;
6027;SDS011;3042;43.194;27.646;2022-12-01T13:36:53;228.77;;;120.00;;
6027;SDS011;3042;43.194;27.646;2022-12-01T13:39:22;238.43;;;118.93;;
6027;SDS011;3042;43.194;27.646;2022-12-01T13:41:58;222.30;;;108.50;;
6027;SDS011;3042;43.194;27.646;2022-12-01T13:44:29;231.67;;;115.37;;
6027;SDS011;3042;43.194;27.646;2022-12-01T13:47:01;213.00;;;106.60;;
6027;SDS011;3042;43.194;27.646;2022-12-01T13:49:38;226.90;;;114.53;;
6027;SDS011;3042;43.194;27.646;2022-12-01T13:52:28;256.10;;;123.27;;
6027;SDS011;3042;43.194;27.646;2022-12-01T14:00:49;231.87;;;118.27;;
6027;SDS011;3042;43.194;27.646;2022-12-01T14:03:30;256.70;;;116.43;;
6027;SDS011;3042;43.194;27.646;2022-12-01T14:06:07;256.00;;;117.90;;
6027;SDS011;3042;43.194;27.646;2022-12-01T14:08:38;262.00;;;120.53;;
6027;SDS011;3042;43.194;27.646;2022-12-01T14:11:17;224.77;;;120.17;;
6027;SDS011;3042;43.194;27.646;2022-12-01T14:13:48;287.30;;;154.73;;
6027;SDS011;3042;43.194;27.646;2022-12-01T14:16:19;229.17;;;117.20;;
6027;SDS011;3042;43.194;27.646;2022-12-01T14:18:50;256.30;;;121.20;;
6027;SDS011;3042;43.194;27.646;2022-12-01T14:24:14;204.53;;;113.33;;
6027;SDS011;3042;43.194;27.646;2022-12-01T14:26:46;208.53;;;109.77;;
6027;SDS011;3042;43.194;27.646;2022-12-01T14:29:25;210.77;;;119.90;;
6027;SDS011;3042;43.194;27.646;2022-12-01T14:34:52;215.77;;;114.77;;
6027;SDS011;3042;43.194;27.646;2022-12-01T14:37:33;201.33;;;106.63;;
6027;SDS011;3042;43.194;27.646;2022-12-01T14:40:07;217.07;;;115.93;;
6027;SDS011;3042;43.194;27.646;2022-12-01T14:42:41;156.13;;;141.27;;
6027;SDS011;3042;43.194;27.646;2022-12-01T14:45:31;206.73;;;118.43;;
6027;SDS011;3042;43.194;27.646;2022-12-01T14:48:04;195.93;;;118.27;;
6027;SDS011;3042;43.194;27.646;2022-12-01T14:50:38;218.53;;;117.73;;
6027;SDS011;3042;43.194;27.646;2022-12-01T14:53:14;90.00;;;80.70;;
6027;SDS011;3042;43.194;27.646;2022-12-01T14:55:49;143.47;;;100.60;;
6027;SDS011;3042;43.194;27.646;2022-12-01T14:58:22;149.27;;;106.57;;
6027;SDS011;3042;43.194;27.646;2022-12-01T15:00:59;132.20;;;99.83;;
6027;SDS011;3042;43.194;27.646;2022-12-01T15:03:33;151.43;;;100.60;;
6027;SDS011;3042;43.194;27.646;2022-12-01T15:06:04;148.30;;;100.47;;